Linton, ND

4:19 AM CST on December 27, 2014 (GMT -0600)
Bismarck Municipal | Change Station
CLOSE
Current Station
Airport
Location: Bismarck,
Elevation: 1660 ft
Nearby Weather Stations

Elev 1660 ft 46.78 °N, 100.76 °W | Updated 27 minutes ago

Clear
Clear
5 °F
Feels Like -4 °F
N
5
Wind Variable Wind from ESE

Today
High -- | Low -- °F
--% Chance of Precip.
Yesterday
High -- | Low -- °F
Precip. -- in
8:23 AM 5:00 PM
Waxing Crescent, 35% visible
Pressure 30.24 in
Visibility 9.0 miles
Clouds Overcast 8000 ft
Windchill -4 °F
Dew Point 2 °F
Humidity 87%
Rainfall 0.00 in
Snow Depth Not available.
UV 0 out of 12
Pollen .10 out of 12
Air Quality Not available.
Flu Activity Not available.
METAR KBIS 270952Z AUTO 12004KT 9SM OVC080 M15/M17 A3012 RMK AO2 SLP238 T11501167

More Conditions Fewer Conditions

Pressure 30.24 in
Visibility 9.0 miles
Clouds Overcast 8000 ft
Windchill -4 °F
Dew Point 2 °F
Humidity 87%
Rainfall 0.00 in
Snow Depth Not available.
UV 0 out of 12
Pollen .10 out of 12
Air Quality Not available.
Flu Activity Not available.
METAR KBIS 270952Z AUTO 12004KT 9SM OVC080 M15/M17 A3012 RMK AO2 SLP238 T11501167

More Conditions Fewer Conditions

10-Day Weather Forecast

Almanac

Astronomy

Dec. 27, 2014 Rise Set
Actual Time
Civil Twilight
Nautical Twilight
Astronomical Twilight
Moon
Length of Visible Light
Length of Day
Tomorrow will be .
, % of the Moon is Illuminated

Today's Extremes

State Highs State Lows

Community

WunderPhotos

Upload Photos

1,780,869 photos uploaded!

WunderBlogs® & News

Nearby

Air Quality

  Air Quality AQ Index Pollutant
Not available.

Snow Depth

Station Depth Elevation

Earthquake Activity

City Distance Mag. Time & Date
Minimum magnitude displayed is 2.5.

Coastal Water Temperatures

Place Temperature

Nearby Weather Stations